Time;durP1;ratioP1;P1;durP2;ratioP2;P2;SDS_P1;SDS_P2;PMS_P1;PMS_P2;Temp;Humidity;BMP_temperature;BMP_pressure;BME280_temperature;BME280_humidity;BME280_pressure;Samples;Min_cycle;Max_cycle;Signal;HPM_P1;HPM_P2
2022/01/16 00:04:39;;;;;;;2.60;2.40;;;;;;;-2.13;75.07;98720.13;5067117;28;20048;-74
2022/01/16 00:07:06;;;;;;;2.67;2.50;;;;;;;-2.19;75.45;98704.06;5069463;28;20554;-73
2022/01/16 00:09:32;;;;;;;3.15;2.95;;;;;;;-2.25;74.36;98691.44;5051782;28;20106;-73
2022/01/16 00:12:00;;;;;;;2.60;2.40;;;;;;;-2.26;75.13;98705.94;5069332;28;20543;-73
2022/01/16 00:14:28;;;;;;;2.92;2.72;;;;;;;-2.22;75.49;98706.69;5069179;28;20156;-73
2022/01/16 00:16:54;;;;;;;3.13;2.83;;;;;;;-2.30;75.80;98714.56;5067738;28;20067;-73
2022/01/16 00:19:20;;;;;;;3.58;2.67;;;;;;;-2.36;76.15;98709.59;5034417;28;20056;-73
2022/01/16 00:21:46;;;;;;;3.08;2.85;;;;;;;-2.36;76.30;98708.75;5068989;28;20036;-73
2022/01/16 00:24:12;;;;;;;2.55;2.35;;;;;;;-2.35;76.97;98706.13;5068915;28;20105;-73
2022/01/16 00:26:38;;;;;;;2.70;2.50;;;;;;;-2.37;76.25;98700.22;5050828;28;20535;-73
2022/01/16 00:29:07;;;;;;;2.55;2.38;;;;;;;-2.35;76.45;98706.13;5051305;28;20601;-73
2022/01/16 00:31:33;;;;;;;2.63;2.42;;;;;;;-2.39;76.70;98701.97;5068858;28;20037;-72
2022/01/16 00:33:59;;;;;;;3.58;3.30;;;;;;;-2.38;76.94;98702.81;5051114;28;20467;-72
2022/01/16 00:36:25;;;;;;;2.65;2.45;;;;;;;-2.48;77.07;98712.38;5068602;28;20247;-74
2022/01/16 00:38:53;;;;;;;3.22;2.50;;;;;;;-2.39;77.13;98727.50;5051380;28;20137;-73
2022/01/16 00:41:19;;;;;;;6.43;3.35;;;;;;;-2.38;77.36;98728.34;5069257;28;20075;-73
2022/01/16 00:43:45;;;;;;;2.58;2.35;;;;;;;-2.37;77.62;98718.13;5071032;28;20139;-73
2022/01/16 00:46:11;;;;;;;2.75;2.55;;;;;;;-2.41;77.10;98713.94;5070111;28;20102;-73
2022/01/16 00:48:37;;;;;;;2.38;2.28;;;;;;;-2.43;77.47;98727.63;5069527;28;20166;-74
2022/01/16 00:51:04;;;;;;;2.63;2.42;;;;;;;-2.40;77.64;98730.97;5069382;28;20162;-74
2022/01/16 00:53:30;;;;;;;3.10;2.80;;;;;;;-2.39;77.60;98724.94;5050600;28;20131;-71
2022/01/16 00:55:56;;;;;;;3.10;2.90;;;;;;;-2.36;77.92;98719.81;5069109;28;20139;-72
2022/01/16 00:58:22;;;;;;;2.58;2.42;;;;;;;-2.32;77.56;98734.16;5034211;28;20147;-73
2022/01/16 01:00:48;;;;;;;3.13;2.92;;;;;;;-2.30;78.04;98750.34;5068987;28;20064;-73
2022/01/16 01:03:14;;;;;;;2.03;1.92;;;;;;;-2.26;77.31;98746.81;5069054;28;20174;-73
2022/01/16 01:05:40;;;;;;;2.38;2.17;;;;;;;-2.20;77.14;98762.03;5050867;28;20048;-73
2022/01/16 01:08:07;;;;;;;2.67;2.47;;;;;;;-2.25;77.50;98774.06;5034258;28;20456;-75
2022/01/16 01:10:36;;;;;;;2.50;2.30;;;;;;;-2.22;77.29;98794.44;5068884;28;20057;-72
2022/01/16 01:15:45;;;;;;;2.63;2.15;;;;;;;-2.28;77.61;98779.22;5069626;28;20109;-73
2022/01/16 01:18:11;;;;;;;1.80;1.70;;;;;;;-2.24;77.46;98801.31;5061997;28;20044;-74
2022/01/16 01:20:38;;;;;;;2.88;2.67;;;;;;;-2.24;77.22;98774.91;5084038;28;20098;-74
2022/01/16 01:23:05;;;;;;;2.42;2.22;;;;;;;-2.24;77.58;98800.47;5083950;28;20044;-72
2022/01/16 01:25:31;;;;;;;2.78;2.60;;;;;;;-2.24;77.17;98821.75;5082129;28;20636;-74
2022/01/16 01:27:56;;;;;;;3.55;2.50;;;;;;;-2.27;77.96;98806.47;5066133;28;20099;-74
2022/01/16 01:30:24;;;;;;;2.47;2.35;;;;;;;-2.23;77.62;98799.59;5078098;28;20044;-74
2022/01/16 01:32:52;;;;;;;3.40;2.80;;;;;;;-2.26;77.77;98818.38;5051671;28;20052;-74
2022/01/16 01:35:18;;;;;;;2.85;2.65;;;;;;;-2.28;78.05;98822.69;5064183;28;20067;-74
2022/01/16 01:37:45;;;;;;;2.05;1.95;;;;;;;-2.24;77.31;98836.22;5051097;28;20041;-74
2022/01/16 01:40:17;;;;;;;2.70;2.50;;;;;;;-2.27;77.49;98841.41;5048540;28;20068;-74
2022/01/16 01:51:01;;;;;;;3.00;2.80;;;;;;;-2.30;77.16;98855.09;5048394;28;20082;-75
2022/01/16 01:51:15;;;;;;;2.10;2.00;;;;;;;-2.36;77.10;98839.03;5048337;28;20045;-74
2022/01/16 01:53:42;;;;;;;2.30;2.20;;;;;;;-2.35;76.68;98833.88;5061127;28;20072;-73
2022/01/16 01:56:12;;;;;;;2.75;2.55;;;;;;;-2.41;77.11;98871.50;5068013;28;20131;-74
2022/01/16 01:58:38;;;;;;;2.13;2.03;;;;;;;-2.44;77.16;98857.06;5068443;28;20040;-73
2022/01/16 02:01:05;;;;;;;2.75;2.55;;;;;;;-2.41;76.74;98867.22;5067948;28;20056;-74
2022/01/16 02:06:19;;;;;;;2.35;2.25;;;;;;;-2.47;76.97;98895.44;5071236;28;20051;-73
2022/01/16 02:08:46;;;;;;;2.60;2.40;;;;;;;-2.46;75.91;98899.69;5072091;28;20467;-72
2022/01/16 02:11:13;;;;;;;3.35;2.50;;;;;;;-2.44;75.24;98899.66;5071220;28;20048;-73
2022/01/16 02:13:56;;;;;;;2.45;2.35;;;;;;;-2.44;75.33;98915.81;5071653;28;20123;-72
2022/01/16 02:28:05;;;;;;;2.50;2.40;;;;;;;-2.60;74.94;98750.94;5071550;28;20109;-73
2022/01/16 02:35:36;;;;;;;2.35;2.15;;;;;;;-2.66;75.45;98781.72;5071210;28;20044;-73
2022/01/16 02:38:04;;;;;;;2.40;2.20;;;;;;;-2.70;75.48;98856.69;5053266;28;20477;-72
2022/01/16 02:40:30;;;;;;;2.38;2.28;;;;;;;-2.71;75.05;98890.75;5071069;28;20052;-72
2022/01/16 02:42:57;;;;;;;2.15;1.95;;;;;;;-2.79;75.39;98925.81;5070564;28;20059;-74
2022/01/16 02:45:31;;;;;;;2.42;2.20;;;;;;;-2.80;75.53;98921.56;5070649;28;20552;-72
2022/01/16 02:48:01;;;;;;;2.13;2.00;;;;;;;-2.89;74.89;98851.09;5071148;28;20068;-72
2022/01/16 02:50:27;;;;;;;2.88;2.38;;;;;;;-2.94;75.28;98868.16;5071064;28;20542;-72
2022/01/16 02:52:53;;;;;;;3.25;2.67;;;;;;;-3.01;75.24;98914.25;5071393;28;20493;-73
2022/01/16 02:55:21;;;;;;;4.40;2.72;;;;;;;-2.98;74.72;98932.09;5053479;28;20626;-72
2022/01/16 02:57:48;;;;;;;3.28;2.70;;;;;;;-3.01;75.34;98891.28;5053097;28;20059;-72
2022/01/16 03:00:14;;;;;;;2.97;2.47;;;;;;;-3.07;75.69;98886.25;5052760;28;20059;-73
2022/01/16 03:02:40;;;;;;;3.42;3.13;;;;;;;-3.07;75.40;98916.88;5053289;28;20131;-72
2022/01/16 03:05:07;;;;;;;2.63;2.47;;;;;;;-3.14;75.83;98925.53;5053030;28;20109;-73
2022/01/16 03:07:33;;;;;;;3.90;3.20;;;;;;;-3.14;75.23;98930.63;5070903;28;20523;-73
2022/01/16 03:10:53;;;;;;;3.25;2.95;;;;;;;-3.19;75.23;98934.09;5071322;28;20094;-73
2022/01/16 03:13:21;;;;;;;2.75;2.55;;;;;;;-3.22;75.48;98946.91;5070702;28;20048;-72
2022/01/16 03:15:50;;;;;;;2.83;2.65;;;;;;;-3.29;75.87;98934.25;5070664;28;20056;-72
2022/01/16 03:23:27;;;;;;;5.38;2.65;;;;;;;-3.21;75.14;98956.22;5052398;28;20044;-72
2022/01/16 03:25:53;;;;;;;3.50;3.20;;;;;;;-3.17;75.19;98970.63;5070686;28;20132;-70
2022/01/16 03:28:19;;;;;;;2.85;2.65;;;;;;;-3.16;74.90;98974.88;5070721;28;20048;-72
2022/01/16 03:30:53;;;;;;;2.85;2.58;;;;;;;-3.22;75.34;98963.91;5071090;28;20051;-72
2022/01/16 03:33:20;;;;;;;2.42;2.28;;;;;;;-3.28;75.40;98969.94;5054357;28;20041;-72
2022/01/16 03:35:47;;;;;;;2.35;2.20;;;;;;;-3.24;75.17;98950.34;5053988;28;20535;-72
2022/01/16 03:38:13;;;;;;;2.78;2.25;;;;;;;-3.25;74.20;98964.81;5070395;28;20048;-72
2022/01/16 03:40:40;;;;;;;2.38;2.25;;;;;;;-3.30;74.59;98986.97;5052542;28;20048;-72
2022/01/16 03:43:13;;;;;;;2.05;1.95;;;;;;;-3.19;73.58;98990.22;5070161;28;20059;-73
2022/01/16 03:45:44;;;;;;;3.47;2.63;;;;;;;-3.23;73.64;98993.69;5052779;28;20061;-73
2022/01/16 03:48:10;;;;;;;2.30;2.00;;;;;;;-3.21;73.47;99011.53;5070406;28;20131;-73
2022/01/16 03:50:36;;;;;;;2.10;2.00;;;;;;;-3.23;73.15;98997.94;5070085;28;20132;-72
2022/01/16 03:53:03;;;;;;;2.15;2.05;;;;;;;-3.23;73.19;98998.78;5070525;28;20131;-72
2022/01/16 03:55:30;;;;;;;4.25;1.92;;;;;;;-3.22;73.38;99015.78;5035845;28;20143;-71
2022/01/16 03:57:56;;;;;;;2.92;2.55;;;;;;;-3.19;73.01;99020.84;5052336;28;20054;-72
2022/01/16 04:00:23;;;;;;;3.22;2.50;;;;;;;-3.13;72.94;99030.13;5035883;28;20531;-72
2022/01/16 04:02:52;;;;;;;2.25;2.15;;;;;;;-3.06;72.87;99016.41;5070065;28;20055;-73
2022/01/16 04:05:18;;;;;;;2.65;2.45;;;;;;;-3.08;72.71;99032.63;5070167;28;20110;-72
2022/01/16 04:07:47;;;;;;;2.50;2.33;;;;;;;-3.04;72.72;99029.16;5052343;28;20048;-72
2022/01/16 04:10:13;;;;;;;1.60;1.52;;;;;;;-3.00;72.06;99010.38;5070105;28;20040;-73
2022/01/16 04:12:41;;;;;;;4.28;2.13;;;;;;;-2.93;72.28;99027.28;5052811;28;20458;-73
2022/01/16 04:17:42;;;;;;;2.33;2.22;;;;;;;-3.01;72.81;99026.56;5052909;28;20074;-71
2022/01/16 04:20:09;;;;;;;2.15;2.05;;;;;;;-2.93;72.45;99042.59;5035060;28;20060;-73
2022/01/16 04:22:35;;;;;;;1.90;1.80;;;;;;;-2.95;72.90;99045.19;5069092;28;20075;-74
2022/01/16 04:25:01;;;;;;;2.78;2.15;;;;;;;-2.94;72.98;99046.00;5051447;28;20048;-73
2022/01/16 04:27:27;;;;;;;3.72;2.63;;;;;;;-2.93;73.10;99051.09;5033742;28;20044;-72
2022/01/16 04:29:52;;;;;;;2.67;2.47;;;;;;;-2.93;73.35;99057.91;5070159;28;20048;-73
2022/01/16 04:32:19;;;;;;;2.40;2.20;;;;;;;-2.94;73.56;99053.66;5068455;28;20050;-72
2022/01/16 04:34:44;;;;;;;2.53;2.33;;;;;;;-2.93;73.58;99052.81;5051168;28;20085;-73
2022/01/16 04:37:11;;;;;;;2.30;2.10;;;;;;;-2.90;73.31;99061.28;5050791;28;20672;-73
2022/01/16 04:39:37;;;;;;;2.53;2.42;;;;;;;-2.87;73.10;99055.28;5067674;28;20044;-73
2022/01/16 04:44:52;;;;;;;2.17;2.05;;;;;;;-2.87;73.37;99053.56;5058749;28;20112;-72
2022/01/16 04:47:18;;;;;;;1.92;1.83;;;;;;;-2.86;73.25;99062.09;5074806;28;20048;-71
2022/01/16 04:49:44;;;;;;;2.17;2.08;;;;;;;-2.83;72.19;99026.28;5069000;28;20053;-72
2022/01/16 04:52:12;;;;;;;2.00;1.90;;;;;;;-2.83;72.68;99055.22;5068741;28;20512;-73
2022/01/16 04:54:38;;;;;;;2.35;2.25;;;;;;;-2.83;72.81;99067.16;5051138;28;20056;-73
2022/01/16 04:57:04;;;;;;;2.25;2.15;;;;;;;-2.88;73.12;99066.38;5069038;28;20045;-73
2022/01/16 04:59:30;;;;;;;3.58;2.90;;;;;;;-2.83;73.42;99074.81;5069157;28;20131;-72
2022/01/16 05:01:56;;;;;;;3.63;2.47;;;;;;;-2.87;73.44;99074.00;5069711;28;20794;-73
2022/01/16 05:04:22;;;;;;;2.28;2.15;;;;;;;-2.84;73.78;99080.75;5051198;28;20048;-73
2022/01/16 05:06:48;;;;;;;2.88;2.65;;;;;;;-2.85;73.83;99086.75;5034743;28;20547;-73
2022/01/16 05:09:14;;;;;;;2.88;2.67;;;;;;;-2.88;73.85;99092.72;5050399;28;20130;-73
2022/01/16 05:11:40;;;;;;;2.60;2.40;;;;;;;-2.89;73.73;99092.75;5050517;28;20083;-74
2022/01/16 05:16:37;;;;;;;3.65;2.40;;;;;;;-2.88;73.81;99099.56;5067765;28;20094;-74
2022/01/16 05:19:11;;;;;;;2.60;2.40;;;;;;;-2.86;73.67;99105.47;5069131;28;20045;-73
2022/01/16 05:21:37;;;;;;;2.90;2.67;;;;;;;-2.88;74.17;99097.00;5068916;28;20049;-73
2022/01/16 05:24:07;;;;;;;2.80;2.60;;;;;;;-2.89;73.98;99108.06;5068959;28;20083;-73
2022/01/16 05:26:34;;;;;;;2.17;2.08;;;;;;;-2.92;74.05;99120.88;5051054;28;20052;-73
2022/01/16 05:29:00;;;;;;;2.00;1.90;;;;;;;-2.89;73.99;99121.69;5052171;28;20045;-74
2022/01/16 05:31:26;;;;;;;2.22;2.13;;;;;;;-2.91;73.90;99115.75;5050596;28;20702;-73
2022/01/16 05:33:52;;;;;;;1.95;1.85;;;;;;;-2.91;74.20;99122.59;5068631;28;20055;-74
2022/01/16 05:36:22;;;;;;;2.60;2.40;;;;;;;-2.94;74.41;99120.88;5054229;28;20049;-74
2022/01/16 05:38:48;;;;;;;2.70;2.50;;;;;;;-2.93;75.08;99137.06;5016449;28;20048;-73
2022/01/16 05:41:14;;;;;;;2.28;2.17;;;;;;;-2.95;74.31;99137.09;5050719;28;20080;-74
2022/01/16 05:43:40;;;;;;;2.55;2.42;;;;;;;-2.98;74.33;99142.25;5052337;28;20049;-73
2022/01/16 05:46:06;;;;;;;2.10;1.98;;;;;;;-2.98;73.65;99141.38;5052329;28;20049;-73
2022/01/16 05:48:35;;;;;;;2.60;2.40;;;;;;;-2.96;73.79;99149.88;5034520;28;20041;-74
2022/01/16 05:51:02;;;;;;;2.35;2.15;;;;;;;-3.03;74.29;99158.44;5052217;28;20051;-74
2022/01/16 05:53:28;;;;;;;2.95;2.75;;;;;;;-2.98;72.97;99169.47;5052076;28;20147;-74
2022/01/16 05:55:54;;;;;;;2.10;2.00;;;;;;;-3.02;73.34;99166.09;5052194;28;20061;-73
2022/01/16 05:58:20;;;;;;;2.35;2.20;;;;;;;-3.03;72.85;99166.09;5051489;28;20552;-74
2022/01/16 06:00:48;;;;;;;2.13;2.03;;;;;;;-3.07;72.30;99178.06;5054418;28;20052;-73
2022/01/16 06:03:16;;;;;;;1.70;1.60;;;;;;;-3.07;71.20;99169.56;5071262;28;20044;-74
2022/01/16 06:05:42;;;;;;;1.77;1.67;;;;;;;-3.09;70.97;99179.78;5072082;28;20052;-73
2022/01/16 06:08:12;;;;;;;2.22;2.03;;;;;;;-3.08;69.42;99155.13;5053098;28;20186;-74
2022/01/16 06:10:38;;;;;;;1.88;1.70;;;;;;;-3.07;69.29;99187.41;5072339;28;20048;-74
2022/01/16 06:13:05;;;;;;;2.30;2.10;;;;;;;-3.11;70.18;99181.53;5064538;28;20049;-75
2022/01/16 06:15:31;;;;;;;2.20;2.00;;;;;;;-3.11;71.18;99186.63;5055354;28;20131;-76
2022/01/16 06:17:57;;;;;;;1.70;1.63;;;;;;;-3.11;71.89;99191.75;5045769;28;20144;-73
2022/01/16 06:20:23;;;;;;;1.90;1.80;;;;;;;-3.14;72.49;99185.81;5052109;28;20053;-75
2022/01/16 06:22:49;;;;;;;1.50;1.50;;;;;;;-3.14;72.94;99180.72;5053355;28;20049;-75
2022/01/16 06:25:15;;;;;;;3.92;2.75;;;;;;;-3.14;72.62;99185.81;5052494;28;20608;-76
2022/01/16 06:27:41;;;;;;;1.75;1.65;;;;;;;-3.16;72.91;99181.56;5068938;28;20040;-75
2022/01/16 06:30:08;;;;;;;2.15;2.05;;;;;;;-3.17;73.06;99172.22;5047305;28;20448;-77
2022/01/16 06:32:35;;;;;;;1.88;1.80;;;;;;;-3.24;71.85;99165.47;5045959;28;20048;-76
2022/01/16 06:35:03;;;;;;;2.05;1.90;;;;;;;-3.19;71.25;99178.19;5070452;28;20047;-76
2022/01/16 06:37:29;;;;;;;1.33;1.33;;;;;;;-3.19;69.99;99186.72;5070675;28;20045;-74
2022/01/16 06:39:55;;;;;;;1.42;1.35;;;;;;;-3.19;70.34;99173.09;5055497;28;20048;-73
2022/01/16 06:42:21;;;;;;;1.60;1.60;;;;;;;-3.19;70.34;99185.84;5059316;28;20048;-74
2022/01/16 06:44:48;;;;;;;1.42;1.33;;;;;;;-3.22;70.46;99179.09;5091497;28;20040;-74
2022/01/16 06:47:21;;;;;;;1.10;1.10;;;;;;;-3.18;69.35;99185.00;5081061;28;20044;-75
2022/01/16 06:49:49;;;;;;;1.58;1.58;;;;;;;-3.24;70.67;99175.69;5053217;28;20196;-75
2022/01/16 06:52:19;;;;;;;1.50;1.40;;;;;;;-3.17;70.40;99179.00;5076870;28;20048;-76
2022/01/16 06:54:45;;;;;;;1.52;1.48;;;;;;;-3.18;70.40;99203.72;5085574;28;20055;-75
2022/01/16 06:57:13;;;;;;;1.58;1.50;;;;;;;-3.22;70.67;99188.44;5095588;28;20048;-75
2022/01/16 06:59:39;;;;;;;1.70;1.65;;;;;;;-3.27;70.56;99191.03;5079885;28;20147;-74
2022/01/16 07:02:06;;;;;;;1.45;1.45;;;;;;;-3.30;70.24;99200.41;5081571;28;20200;-75
2022/01/16 07:04:32;;;;;;;1.50;1.40;;;;;;;-3.26;70.66;99191.88;5066438;28;20105;-75
2022/01/16 07:06:59;;;;;;;1.60;1.50;;;;;;;-3.28;70.17;99204.66;5068686;28;20577;-75
2022/01/16 07:09:28;;;;;;;1.40;1.30;;;;;;;-3.23;69.96;99202.91;5060736;28;20055;-75
2022/01/16 07:11:54;;;;;;;1.52;1.42;;;;;;;-3.30;70.34;99193.63;5076089;28;20053;-76
2022/01/16 07:14:20;;;;;;;2.15;1.52;;;;;;;-3.23;70.72;99218.22;5063213;28;20603;-75
2022/01/16 07:16:46;;;;;;;1.77;1.67;;;;;;;-3.22;70.89;99213.97;5078397;28;20049;-75
2022/01/16 07:19:15;;;;;;;1.90;1.70;;;;;;;-3.16;70.75;99224.09;5077405;28;20053;-75
2022/01/16 07:21:41;;;;;;;1.35;1.33;;;;;;;-3.16;70.55;99219.84;5048352;28;20118;-75
2022/01/16 07:24:09;;;;;;;1.73;1.65;;;;;;;-3.18;70.58;99220.72;5065136;28;20056;-73
2022/01/16 07:26:35;;;;;;;1.70;1.60;;;;;;;-3.15;70.99;99223.25;5069065;28;20124;-72
2022/01/16 07:29:01;;;;;;;2.20;2.00;;;;;;;-3.20;70.86;99207.97;5066787;28;20055;-74
2022/01/16 07:31:27;;;;;;;1.75;1.65;;;;;;;-3.22;71.09;99213.97;5058838;28;20048;-74
2022/01/16 07:33:55;;;;;;;1.80;1.70;;;;;;;-3.11;70.90;99231.72;5076200;28;20048;-74
2022/01/16 07:36:24;;;;;;;4.90;1.30;;;;;;;-3.10;69.93;99228.28;5060820;28;20043;-74
2022/01/16 07:38:50;;;;;;;1.75;1.70;;;;;;;-3.06;69.79;99233.34;5068265;28;20051;-75
2022/01/16 07:41:16;;;;;;;1.90;1.80;;;;;;;-3.09;70.19;99232.53;5078670;28;20048;-75
2022/01/16 07:43:42;;;;;;;1.90;1.80;;;;;;;-3.05;70.63;99237.59;5060531;28;20051;-74
2022/01/16 07:46:09;;;;;;;2.67;2.47;;;;;;;-3.02;71.04;99236.72;5060812;28;20044;-75
2022/01/16 07:48:35;;;;;;;1.77;1.67;;;;;;;-2.99;71.31;99229.03;5060513;28;20044;-74
2022/01/16 07:51:05;;;;;;;1.65;1.55;;;;;;;-3.01;71.57;99233.31;4992627;28;20079;-73
2022/01/16 07:53:30;;;;;;;1.83;1.73;;;;;;;-3.06;71.97;99229.94;5014696;28;20179;-74
2022/01/16 07:55:56;;;;;;;2.15;2.05;;;;;;;-3.02;72.67;99232.47;5058073;28;20075;-75
2022/01/16 07:58:22;;;;;;;1.90;1.80;;;;;;;-3.09;73.70;99237.66;5059104;28;20113;-75
2022/01/16 08:00:49;;;;;;;5.97;1.70;;;;;;;-3.04;73.94;99243.56;5055736;28;20051;-75
2022/01/16 08:03:16;;;;;;;5.43;1.98;;;;;;;-2.88;73.57;99237.44;5032764;28;20615;-75
2022/01/16 08:05:42;;;;;;;2.50;2.08;;;;;;;-2.97;72.81;99238.34;5062392;28;20045;-73
2022/01/16 08:08:08;;;;;;;1.55;1.55;;;;;;;-3.03;72.77;99235.03;5055274;28;20132;-73
2022/01/16 08:10:37;;;;;;;2.00;1.77;;;;;;;-2.95;72.25;99243.47;5016840;28;20048;-74
2022/01/16 08:13:04;;;;;;;1.20;1.20;;;;;;;-2.89;72.62;99248.50;5038634;28;20084;-73
2022/01/16 08:15:30;;;;;;;1.73;1.63;;;;;;;-2.95;72.46;99258.78;5056185;28;20107;-75
2022/01/16 08:17:55;;;;;;;1.88;1.75;;;;;;;-3.06;72.48;99256.31;5059279;28;20459;-74
2022/01/16 08:20:22;;;;;;;1.60;1.60;;;;;;;-2.97;72.48;99245.16;5054577;28;20087;-74
2022/01/16 08:22:48;;;;;;;1.45;1.45;;;;;;;-2.92;72.42;99258.75;5039268;28;20052;-74
2022/01/16 08:25:14;;;;;;;1.38;1.27;;;;;;;-2.86;71.92;99259.53;5046097;28;20066;-74
2022/01/16 08:27:40;;;;;;;1.40;1.30;;;;;;;-2.85;71.19;99250.16;5057819;28;20083;-75
2022/01/16 08:30:07;;;;;;;1.60;1.50;;;;;;;-2.67;70.62;99249.94;5047750;28;20056;-76
2022/01/16 08:32:33;;;;;;;1.40;1.40;;;;;;;-2.65;69.96;99250.78;5043240;28;20689;-75
2022/01/16 08:34:59;;;;;;;1.42;1.33;;;;;;;-2.65;70.03;99254.16;5033391;28;20761;-75
2022/01/16 08:37:28;;;;;;;1.45;1.35;;;;;;;-2.72;70.11;99257.69;5044266;28;20106;-74
2022/01/16 08:39:54;;;;;;;1.27;1.27;;;;;;;-2.25;68.29;99246.84;5055195;28;20342;-73
2022/01/16 08:42:20;;;;;;;1.13;1.13;;;;;;;-2.35;68.05;99245.28;5044692;28;20101;-74
2022/01/16 08:44:49;;;;;;;1.70;1.60;;;;;;;-0.38;64.38;99234.22;5058605;28;20439;-74
2022/01/16 08:47:18;;;;;;;1.20;1.20;;;;;;;-0.55;61.55;99236.28;5079749;28;20040;-74
2022/01/16 08:49:44;;;;;;;1.30;1.20;;;;;;;-1.42;64.27;99254.97;5073414;28;20050;-74
2022/01/16 08:52:10;;;;;;;1.17;1.17;;;;;;;-2.48;68.35;99265.88;5091284;28;20041;-76
2022/01/16 08:54:36;;;;;;;1.30;1.30;;;;;;;-2.46;68.34;99259.91;5088202;28;20481;-73
2022/01/16 08:57:02;;;;;;;1.40;1.40;;;;;;;-2.28;67.29;99264.78;5089160;28;20044;-74
2022/01/16 08:59:28;;;;;;;1.65;1.55;;;;;;;-2.57;68.48;99286.44;5067137;28;20056;-73
2022/01/16 09:01:54;;;;;;;1.13;1.13;;;;;;;-2.61;69.24;99275.41;5089290;28;20106;-73
2022/01/16 09:04:21;;;;;;;1.70;1.60;;;;;;;-2.56;70.25;99262.59;5080789;28;20056;-74
2022/01/16 09:06:48;;;;;;;1.38;1.38;;;;;;;-2.46;69.70;99280.34;5076056;28;20113;-72
2022/01/16 09:09:14;;;;;;;1.70;1.60;;;;;;;-2.66;69.68;99272.91;5047139;28;20095;-73
2022/01/16 09:11:40;;;;;;;1.27;1.27;;;;;;;-2.70;70.45;99273.81;5070282;28;20051;-74
2022/01/16 09:14:06;;;;;;;1.52;1.52;;;;;;;-2.64;69.74;99275.44;5082627;28;20059;-73
2022/01/16 09:16:33;;;;;;;1.60;1.60;;;;;;;-2.59;69.61;99276.25;5078766;28;20157;-75
2022/01/16 09:18:59;;;;;;;1.33;1.33;;;;;;;-2.61;70.52;99280.50;5064949;28;20051;-75
2022/01/16 09:21:25;;;;;;;1.75;1.30;;;;;;;-2.62;70.78;99289.88;5071443;28;20056;-74
2022/01/16 09:23:51;;;;;;;1.48;1.48;;;;;;;-2.62;70.47;99283.94;5047655;28;20040;-73
2022/01/16 09:26:17;;;;;;;1.30;1.30;;;;;;;-2.67;70.23;99283.16;5081600;28;20056;-80
2022/01/16 09:28:43;;;;;;;1.50;1.50;;;;;;;-2.67;69.95;99288.25;5085927;28;20212;-73
2022/01/16 09:31:09;;;;;;;1.52;1.52;;;;;;;-2.66;70.00;99287.41;5087862;28;20081;-74
2022/01/16 09:33:35;;;;;;;1.40;1.30;;;;;;;-2.62;70.05;99278.84;5069862;28;20048;-74
2022/01/16 09:40:49;;;;;;;;;;;;;;;;;;;;;
2022/01/16 09:44:03;;;;;;;1.52;1.52;;;;;;;-2.67;69.79;99271.22;5064266;28;20044;-74
2022/01/16 09:46:30;;;;;;;1.58;1.50;;;;;;;-2.54;68.70;99277.03;5034594;28;20045;-75
2022/01/16 09:48:55;;;;;;;1.20;1.20;;;;;;;-2.44;69.01;99267.53;5060917;28;20102;-75
2022/01/16 09:51:27;;;;;;;1.75;1.65;;;;;;;-2.46;68.29;99262.47;5051453;28;20519;-75
2022/01/16 09:53:53;;;;;;;1.40;1.40;;;;;;;-2.58;69.22;99249.81;5041259;28;20102;-75
2022/01/16 09:56:19;;;;;;;1.75;1.38;;;;;;;-2.54;69.33;99255.75;5060728;28;20048;-75
2022/01/16 09:58:47;;;;;;;1.50;1.50;;;;;;;-2.66;69.27;99236.31;5063408;28;20037;-73
2022/01/16 10:01:19;;;;;;;1.38;1.38;;;;;;;-2.66;69.20;99239.72;5035634;28;20084;-72
2022/01/16 10:03:46;;;;;;;1.83;1.73;;;;;;;-2.37;69.05;99249.56;5036337;28;20057;-73
2022/01/16 10:06:21;;;;;;;1.83;1.73;;;;;;;-2.21;68.07;99255.31;5046357;28;20041;-71
2022/01/16 10:08:50;;;;;;;2.13;2.03;;;;;;;-2.35;68.72;99245.28;5061132;28;20068;-71
2022/01/16 10:11:22;;;;;;;1.70;1.70;;;;;;;-2.41;68.53;99241.94;5066035;28;20055;-72
2022/01/16 10:14:01;;;;;;;1.58;1.58;;;;;;;-2.19;68.40;99254.44;5046586;28;20044;-73
2022/01/16 10:16:35;;;;;;;1.20;1.20;;;;;;;-2.04;68.23;99249.97;5063607;28;20178;-74
2022/01/16 10:23:14;;;;;;;2.00;1.88;;;;;;;-2.13;67.46;99244.13;5044769;28;20072;-74
2022/01/16 10:29:16;;;;;;;1.75;1.65;;;;;;;-1.92;66.61;99216.56;5055255;28;20064;-74
2022/01/16 10:31:47;;;;;;;2.13;2.03;;;;;;;-1.94;67.25;99236.19;5050522;28;20131;-73
2022/01/16 10:34:32;;;;;;;3.10;2.90;;;;;;;-2.13;67.89;99216.00;5062309;28;20048;-71
2022/01/16 10:37:02;;;;;;;2.05;1.95;;;;;;;-2.00;67.93;99226.06;5064915;28;20049;-75
2022/01/16 10:39:28;;;;;;;2.10;2.00;;;;;;;-2.08;68.23;99223.59;5030063;28;20532;-71
2022/01/16 10:42:17;;;;;;;3.03;2.83;;;;;;;-2.01;67.58;99227.78;5058632;28;20056;-72
2022/01/16 10:44:45;;;;;;;2.33;2.22;;;;;;;-2.07;67.29;99222.75;5067696;28;20139;-75
2022/01/16 10:47:28;;;;;;;1.50;1.50;;;;;;;-2.13;67.71;99233.88;5062831;28;20044;-73
2022/01/16 10:50:24;;;;;;;2.40;2.20;;;;;;;-2.16;68.05;99223.72;5062358;28;20040;-73
2022/01/16 10:53:01;;;;;;;1.65;1.65;;;;;;;-2.09;67.85;99226.22;5022208;28;20140;-72
2022/01/16 10:55:51;;;;;;;1.70;1.60;;;;;;;-1.88;67.65;99231.00;5060184;28;20620;-78
2022/01/16 10:58:20;;;;;;;2.30;2.13;;;;;;;-1.98;68.56;99227.72;5032704;28;20143;-73
2022/01/16 11:00:54;;;;;;;6.45;4.28;;;;;;;-1.85;69.19;99238.59;5052430;28;20060;-73
2022/01/16 11:03:21;;;;;;;2.33;2.22;;;;;;;-1.77;68.65;99221.44;5062987;28;20044;-74
2022/01/16 11:05:49;;;;;;;2.10;2.00;;;;;;;-1.88;69.35;99213.09;5058726;28;20048;-73
2022/01/16 11:08:17;;;;;;;1.75;1.48;;;;;;;-2.03;70.67;99221.84;5046564;28;20063;-73
2022/01/16 11:10:50;;;;;;;1.90;1.80;;;;;;;-2.03;71.36;99233.78;5060184;28;20456;-73
2022/01/16 11:13:18;;;;;;;2.00;1.90;;;;;;;-1.92;71.27;99240.41;5060612;28;20040;-73
2022/01/16 11:15:45;;;;;;;2.30;2.20;;;;;;;-2.02;72.33;99240.56;5060258;28;20087;-73
2022/01/16 11:18:12;;;;;;;2.40;2.30;;;;;;;-1.88;72.26;99243.78;5061476;28;20044;-73
2022/01/16 11:20:39;;;;;;;4.53;2.78;;;;;;;-1.77;71.99;99247.03;5060992;28;20052;-72
2022/01/16 11:23:28;;;;;;;2.97;2.72;;;;;;;-1.69;72.05;99250.28;5062168;28;20084;-73
2022/01/16 11:25:59;;;;;;;1.92;1.90;;;;;;;-1.86;71.96;99247.13;5062576;28;20080;-72
2022/01/16 11:28:49;;;;;;;2.88;2.67;;;;;;;-1.75;72.25;99260.63;5049342;28;20068;-75
2022/01/16 11:31:15;;;;;;;2.10;2.00;;;;;;;-1.88;72.44;99264.22;5042826;28;20049;-74
2022/01/16 11:33:41;;;;;;;3.17;2.97;;;;;;;-1.83;71.85;99265.03;5060965;28;20162;-75
2022/01/16 11:36:25;;;;;;;2.67;2.47;;;;;;;-1.91;71.82;99254.91;5063660;28;20094;-75
2022/01/16 11:38:58;;;;;;;2.20;2.10;;;;;;;-1.96;72.07;99260.97;5051900;28;20048;-75
2022/01/16 11:41:35;;;;;;;2.35;2.10;;;;;;;-2.02;72.76;99266.13;5051180;28;20052;-80
2022/01/16 11:44:05;;;;;;;2.78;2.58;;;;;;;-1.87;72.18;99271.03;5062008;28;20151;-78
2022/01/16 11:46:34;;;;;;;1.85;1.40;;;;;;;-2.05;72.91;99274.69;5064035;28;20053;-76
2022/01/16 11:49:01;;;;;;;2.20;2.10;;;;;;;-2.01;71.26;99268.69;5057069;28;21112;-75
2022/01/16 11:51:36;;;;;;;1.98;1.88;;;;;;;-2.00;71.90;99269.53;5061179;28;20064;-76
2022/01/16 11:54:02;;;;;;;1.90;1.80;;;;;;;-1.97;72.09;99269.47;5065326;28;20075;-77
2022/01/16 11:56:41;;;;;;;7.35;2.60;;;;;;;-1.98;72.49;99267.78;5059249;28;20049;-76
2022/01/16 11:59:10;;;;;;;2.45;2.33;;;;;;;-1.98;73.30;99266.06;5064573;28;20057;-75
2022/01/16 12:01:49;;;;;;;1.80;1.70;;;;;;;-2.04;71.95;99253.38;5055186;28;20055;-77
2022/01/16 12:04:30;;;;;;;2.20;2.10;;;;;;;-1.93;71.70;99271.13;5064596;28;20040;-76
2022/01/16 12:06:56;;;;;;;1.98;1.90;;;;;;;-1.96;71.79;99263.50;5062081;28;20170;-75
2022/01/16 12:09:52;;;;;;;1.67;1.58;;;;;;;-1.97;71.35;99261.81;5064779;28;20056;-73
2022/01/16 12:12:18;;;;;;;2.50;2.33;;;;;;;-1.96;71.53;99260.97;5055672;28;20078;-74
2022/01/16 12:15:09;;;;;;;1.92;1.83;;;;;;;-1.98;71.04;99245.63;5054475;28;20040;-74
2022/01/16 12:17:44;;;;;;;1.40;1.40;;;;;;;-1.96;70.95;99245.63;5056736;28;20140;-78
2022/01/16 12:20:13;;;;;;;4.25;2.22;;;;;;;-1.90;70.75;99240.41;5058222;28;20045;-79
2022/01/16 12:23:01;;;;;;;0.95;0.95;;;;;;;-1.88;70.54;99248.88;5054128;28;20045;-79
2022/01/16 12:25:39;;;;;;;1.52;1.40;;;;;;;-1.90;70.52;99246.38;5060776;28;20499;-79
2022/01/16 12:28:09;;;;;;;2.25;2.15;;;;;;;-1.79;69.67;99238.50;5061038;28;20048;-79
2022/01/16 12:31:03;;;;;;;2.40;2.20;;;;;;;-1.80;70.53;99241.97;5041124;28;20049;-81
2022/01/16 12:33:47;;;;;;;2.60;2.40;;;;;;;-1.77;70.04;99234.25;5047159;28;20052;-77
2022/01/16 12:36:17;;;;;;;2.10;2.00;;;;;;;-1.75;70.02;99235.03;5057573;28;20104;-79
2022/01/16 12:39:00;;;;;;;1.70;1.60;;;;;;;-1.78;69.74;99238.50;5064029;28;20040;-79
